createdAt,value
2022-09-11T00:03:00.551Z,99981.53
2022-09-11T00:06:04.018Z,99985.44
2022-09-11T00:09:06.786Z,99982.88
2022-09-11T00:12:08.184Z,99990.34
2022-09-11T00:15:10.319Z,99977.03
2022-09-11T00:18:13.424Z,99979.50
2022-09-11T00:21:15.804Z,99972.56
2022-09-11T00:24:17.598Z,99968.13
2022-09-11T00:27:19.133Z,99975.13
2022-09-11T00:30:20.528Z,99969.94
2022-09-11T00:33:22.768Z,99965.56
2022-09-11T00:36:27.508Z,99965.84
2022-09-11T00:39:29.101Z,99959.56
2022-09-11T00:42:30.555Z,99964.28
2022-09-11T00:45:32.211Z,99970.31
2022-09-11T00:48:36.725Z,99965.03
2022-09-11T00:51:38.750Z,99967.50
2022-09-11T00:55:09.487Z,99968.03
2022-09-11T00:58:17.457Z,99967.91
2022-09-11T01:01:19.001Z,99962.63
2022-09-11T01:04:21.888Z,99969.19
2022-09-11T01:07:25.851Z,99962.19
2022-09-11T01:10:38.192Z,99962.19
2022-09-11T01:14:01.277Z,99957.34
2022-09-11T01:17:19.334Z,99952.91
2022-09-11T01:20:32.953Z,99959.34
2022-09-11T01:23:55.028Z,99956.59
2022-09-11T01:27:24.741Z,99964.28
2022-09-11T01:30:37.475Z,99954.59
2022-09-11T01:33:50.854Z,99952.97
2022-09-11T01:37:00.918Z,99944.03
2022-09-11T01:40:10.795Z,99950.78
2022-09-11T01:43:20.327Z,99961.16
2022-09-11T01:46:27.154Z,99951.72
2022-09-11T01:49:39.990Z,99958.94
2022-09-11T01:52:53.985Z,99960.38
2022-09-11T01:56:16.547Z,99963.56
2022-09-11T01:59:30.437Z,99969.47
2022-09-11T02:02:40.348Z,99966.84
2022-09-11T02:05:58.946Z,99971.59
2022-09-11T02:09:06.025Z,99978.88
2022-09-11T02:12:11.301Z,99975.50
2022-09-11T02:15:15.736Z,99974.31
2022-09-11T02:18:25.235Z,99977.69
2022-09-11T02:21:28.622Z,99967.75
2022-09-11T02:24:29.951Z,99969.50
2022-09-11T02:27:31.929Z,99961.66
2022-09-11T02:30:35.013Z,99964.38
2022-09-11T02:33:37.636Z,99957.81
2022-09-11T02:36:48.798Z,99955.91
2022-09-11T02:40:04.770Z,99956.00
2022-09-11T02:43:13.590Z,99957.44
2022-09-11T02:46:34.389Z,99954.53
2022-09-11T02:50:02.493Z,99967.03
2022-09-11T02:53:17.510Z,99968.75
2022-09-11T02:56:47.809Z,99965.38
2022-09-11T02:59:54.418Z,99964.53
2022-09-11T03:02:56.389Z,99969.66
2022-09-11T03:05:58.001Z,99964.00
2022-09-11T03:08:59.432Z,99970.31
2022-09-11T03:12:03.445Z,99970.84
2022-09-11T03:15:10.455Z,99961.47
2022-09-11T03:18:15.571Z,99969.28
2022-09-11T03:21:17.000Z,99972.41
2022-09-11T03:24:18.609Z,99967.69
2022-09-11T03:27:21.489Z,99966.94
2022-09-11T03:30:22.883Z,99968.66
2022-09-11T03:33:24.358Z,99967.22
2022-09-11T03:36:25.938Z,99966.66
2022-09-11T03:39:28.763Z,99966.41
2022-09-11T03:42:33.383Z,99971.84
2022-09-11T03:45:34.947Z,99962.09
2022-09-11T03:48:36.586Z,99962.72
2022-09-11T03:51:37.995Z,99965.03
2022-09-11T03:54:39.746Z,99969.50
2022-09-11T03:57:41.376Z,99970.84
2022-09-11T04:00:44.358Z,99969.13
2022-09-11T04:03:46.401Z,99976.41
2022-09-11T04:06:56.707Z,99979.97
2022-09-11T04:09:58.217Z,99972.41
2022-09-11T04:13:00.096Z,99973.44
2022-09-11T04:16:16.665Z,99977.31
2022-09-11T04:19:21.625Z,99975.13
2022-09-11T04:22:24.281Z,99977.31
2022-09-11T04:25:26.296Z,99977.22
2022-09-11T04:28:29.502Z,99987.53
2022-09-11T04:31:31.009Z,99986.72
2022-09-11T04:34:33.337Z,99999.38
2022-09-11T04:37:35.445Z,100002.75
2022-09-11T04:40:37.720Z,100001.84
2022-09-11T04:43:40.786Z,100013.25
2022-09-11T04:46:45.178Z,100012.88
2022-09-11T04:49:46.778Z,100009.41
2022-09-11T04:52:49.334Z,100013.88
2022-09-11T04:55:51.309Z,100011.41
2022-09-11T04:58:57.341Z,100026.16
2022-09-11T05:02:00.173Z,100034.47
2022-09-11T05:05:03.303Z,100041.50
2022-09-11T05:08:06.353Z,100041.28
2022-09-11T05:11:11.820Z,100040.09
2022-09-11T05:14:13.281Z,100052.41
2022-09-11T05:17:17.074Z,100050.47
2022-09-11T05:20:18.762Z,100046.66
2022-09-11T05:23:20.276Z,100056.78
2022-09-11T05:26:23.797Z,100051.28
2022-09-11T05:29:32.705Z,100058.41
2022-09-11T05:32:43.853Z,100050.78
2022-09-11T05:35:46.822Z,100069.38
2022-09-11T05:38:49.153Z,100069.94
2022-09-11T05:41:52.227Z,100069.22
2022-09-11T05:44:53.695Z,100070.72
2022-09-11T05:47:56.864Z,100068.00
2022-09-11T05:51:07.163Z,100079.69
2022-09-11T05:54:08.950Z,100079.47
2022-09-11T05:57:10.560Z,100079.16
2022-09-11T06:00:14.183Z,100083.19
2022-09-11T06:03:26.411Z,100091.06
2022-09-11T06:06:29.375Z,100094.47
2022-09-11T06:09:30.805Z,100090.28
2022-09-11T06:12:32.300Z,100093.78
2022-09-11T06:15:46.137Z,100103.28
2022-09-11T06:18:50.168Z,100103.34
2022-09-11T06:21:54.202Z,100106.06
2022-09-11T06:25:08.006Z,100104.59
2022-09-11T06:28:09.476Z,100099.72
2022-09-11T06:31:16.311Z,100107.91
2022-09-11T06:34:22.259Z,100110.56
2022-09-11T06:37:24.573Z,100109.00
2022-09-11T06:40:26.529Z,100112.38
2022-09-11T06:43:28.911Z,100118.97
2022-09-11T06:46:30.349Z,100119.78
2022-09-11T06:49:33.506Z,100120.88
2022-09-11T06:52:54.065Z,100116.88
2022-09-11T06:56:00.462Z,100120.16
2022-09-11T06:59:03.659Z,100115.19
2022-09-11T07:02:07.110Z,100111.28
2022-09-11T07:05:10.774Z,100117.91
2022-09-11T07:08:13.472Z,100116.59
2022-09-11T07:11:17.736Z,100121.88
2022-09-11T07:14:29.378Z,100113.31
2022-09-11T07:17:41.181Z,100121.63
2022-09-11T07:20:45.066Z,100118.09
2022-09-11T07:23:49.457Z,100126.81
2022-09-11T07:26:51.116Z,100126.66
2022-09-11T07:30:03.153Z,100126.41
2022-09-11T07:33:08.569Z,100127.69
2022-09-11T07:36:14.497Z,100134.63
2022-09-11T07:39:18.042Z,100139.03
2022-09-11T07:42:29.044Z,100142.28
2022-09-11T07:45:32.943Z,100136.34
2022-09-11T07:48:34.542Z,100138.63
2022-09-11T07:51:37.654Z,100142.34
2022-09-11T07:54:41.276Z,100149.47
2022-09-11T07:57:42.851Z,100158.69
2022-09-11T08:00:45.296Z,100153.41
2022-09-11T08:03:58.391Z,100153.56
2022-09-11T08:07:01.749Z,100159.06
2022-09-11T08:10:26.573Z,100160.44
2022-09-11T08:13:30.343Z,100158.69
2022-09-11T08:16:32.540Z,100163.97
2022-09-11T08:19:34.997Z,100161.75
2022-09-11T08:22:37.061Z,100156.66
2022-09-11T08:25:39.883Z,100157.28
2022-09-11T08:28:44.872Z,100165.06
2022-09-11T08:31:46.689Z,100166.66
2022-09-11T08:34:48.870Z,100164.25
2022-09-11T08:37:54.731Z,100165.53
2022-09-11T08:40:59.041Z,100167.09
2022-09-11T08:44:09.853Z,100165.94
2022-09-11T08:47:35.476Z,100171.31
2022-09-11T08:50:41.524Z,100170.94
2022-09-11T08:53:45.657Z,100172.56
2022-09-11T08:56:52.029Z,100171.28
2022-09-11T09:00:18.685Z,100178.19
2022-09-11T09:03:55.497Z,100173.78
2022-09-11T09:07:13.138Z,100178.63
2022-09-11T09:10:33.390Z,100172.94
2022-09-11T09:14:06.771Z,100175.13
2022-09-11T09:17:16.908Z,100182.06
2022-09-11T09:20:27.128Z,100180.06
2022-09-11T09:23:37.206Z,100177.34
2022-09-11T09:26:40.644Z,100175.75
2022-09-11T09:29:47.097Z,100178.28
2022-09-11T09:32:58.502Z,100178.94
2022-09-11T09:36:13.278Z,100182.56
2022-09-11T09:39:17.432Z,100174.75
2022-09-11T09:42:47.495Z,100171.34
2022-09-11T09:46:11.887Z,100174.00
2022-09-11T09:49:27.761Z,100175.41
2022-09-11T09:52:35.927Z,100167.63
2022-09-11T09:55:40.455Z,100167.00
2022-09-11T09:58:54.927Z,100162.34
2022-09-11T10:01:56.588Z,100155.84
2022-09-11T10:05:13.963Z,100148.38
2022-09-11T10:08:33.509Z,100140.63
2022-09-11T10:11:35.109Z,100141.22
2022-09-11T10:14:58.355Z,100137.63
2022-09-11T10:18:28.965Z,100134.56
2022-09-11T10:21:35.710Z,100120.59
2022-09-11T10:24:37.137Z,100129.78
2022-09-11T10:27:59.107Z,100130.56
2022-09-11T10:31:03.567Z,100127.97
2022-09-11T10:34:06.251Z,100117.94
2022-09-11T10:37:16.523Z,100117.44
2022-09-11T10:40:23.089Z,100130.72
2022-09-11T10:43:35.153Z,100124.16
2022-09-11T10:46:40.836Z,100127.50
2022-09-11T10:49:43.450Z,100132.19
2022-09-11T10:53:09.775Z,100130.06
2022-09-11T10:56:12.111Z,100132.91
2022-09-11T10:59:18.945Z,100131.53
2022-09-11T11:02:33.206Z,100136.81
2022-09-11T11:05:59.939Z,100127.19
2022-09-11T11:09:16.546Z,100132.25
2022-09-11T11:12:41.437Z,100135.13
2022-09-11T11:15:59.407Z,100134.50
2022-09-11T11:19:07.758Z,100132.16
2022-09-11T11:22:34.321Z,100126.31
2022-09-11T11:26:04.405Z,100128.16
2022-09-11T11:29:22.518Z,100127.38
2022-09-11T11:32:48.869Z,100112.34
2022-09-11T11:36:16.804Z,100110.50
2022-09-11T11:40:02.655Z,100103.72
2022-09-11T11:43:07.729Z,100107.81
2022-09-11T11:46:18.391Z,100107.47
2022-09-11T11:49:46.576Z,100100.25
2022-09-11T11:53:06.234Z,100096.41
2022-09-11T11:56:24.109Z,100094.84
2022-09-11T11:59:36.809Z,100091.75
2022-09-11T12:02:45.605Z,100095.28
2022-09-11T12:05:47.134Z,100097.78
2022-09-11T12:08:49.136Z,100094.97
2022-09-11T12:11:53.234Z,100097.63
2022-09-11T12:15:01.104Z,100098.09
2022-09-11T12:18:23.840Z,100090.03
2022-09-11T12:21:25.213Z,100094.94
2022-09-11T12:24:52.293Z,100081.66
2022-09-11T12:28:12.786Z,100081.41
2022-09-11T12:31:16.394Z,100079.94
2022-09-11T12:34:46.359Z,100090.28
2022-09-11T12:37:56.938Z,100083.06
2022-09-11T12:41:07.295Z,100077.13
2022-09-11T12:44:30.693Z,100081.34
2022-09-11T12:47:40.123Z,100077.72
2022-09-11T12:50:55.711Z,100079.72
2022-09-11T12:54:03.982Z,100075.72
2022-09-11T12:57:19.741Z,100070.66
2022-09-11T13:00:28.158Z,100065.25
2022-09-11T13:03:30.233Z,100059.75
2022-09-11T13:06:43.043Z,100066.66
2022-09-11T13:09:49.361Z,100057.56
2022-09-11T13:12:53.244Z,100051.94
2022-09-11T13:15:58.271Z,100046.59
2022-09-11T13:19:20.757Z,100046.84
2022-09-11T13:22:28.562Z,100042.63
2022-09-11T13:25:33.978Z,100034.31
2022-09-11T13:28:47.824Z,100038.50
2022-09-11T13:31:49.699Z,100036.09
2022-09-11T13:34:56.773Z,100037.03
2022-09-11T13:38:02.606Z,100035.81
2022-09-11T13:41:13.725Z,100030.91
2022-09-11T13:44:42.681Z,100030.44
2022-09-11T13:47:44.189Z,100025.94
2022-09-11T13:50:45.613Z,100018.56
2022-09-11T13:53:58.307Z,100018.00
2022-09-11T13:56:59.654Z,100005.97
2022-09-11T14:00:01.815Z,100006.53
2022-09-11T14:03:05.433Z,99996.25
2022-09-11T14:06:14.942Z,99991.75
2022-09-11T14:09:21.833Z,99984.34
2022-09-11T14:12:24.772Z,99977.81
2022-09-11T14:15:37.812Z,99975.94
2022-09-11T14:18:45.378Z,99971.47
2022-09-11T14:21:49.184Z,99970.53
2022-09-11T14:25:19.497Z,99967.59
2022-09-11T14:28:56.838Z,99956.72
2022-09-11T14:32:33.777Z,99952.13
2022-09-11T14:35:36.088Z,99957.69
2022-09-11T14:38:38.191Z,99951.09
2022-09-11T14:41:42.597Z,99954.66
2022-09-11T14:44:44.333Z,99948.13
2022-09-11T14:47:46.730Z,99951.09
2022-09-11T14:50:48.571Z,99943.09
2022-09-11T14:53:49.925Z,99946.81
2022-09-11T14:56:52.471Z,99939.44
2022-09-11T14:59:54.221Z,99938.59
2022-09-11T15:02:56.116Z,99936.75
2022-09-11T15:05:58.580Z,99936.56
2022-09-11T15:09:01.495Z,99937.66
2022-09-11T15:12:04.247Z,99936.66
2022-09-11T15:15:06.042Z,99925.69
2022-09-11T15:18:08.445Z,99928.50
2022-09-11T15:21:09.956Z,99918.22
2022-09-11T15:24:11.383Z,99926.69
2022-09-11T15:27:12.791Z,99922.38
2022-09-11T15:30:14.500Z,99912.31
2022-09-11T15:33:16.052Z,99911.28
2022-09-11T15:36:18.468Z,99911.28
2022-09-11T15:39:21.045Z,99905.50
2022-09-11T15:42:22.542Z,99901.44
2022-09-11T15:45:24.030Z,99903.41
2022-09-11T15:48:28.244Z,99899.88
2022-09-11T15:51:29.744Z,99902.47
2022-09-11T15:54:31.248Z,99896.97
2022-09-11T15:57:34.485Z,99899.34
2022-09-11T16:00:36.245Z,99900.81
2022-09-11T16:03:37.614Z,99903.06
2022-09-11T16:06:42.316Z,99890.91
2022-09-11T16:09:44.035Z,99900.44
2022-09-11T16:12:47.029Z,99895.56
2022-09-11T16:15:49.234Z,99891.94
2022-09-11T16:18:50.717Z,99905.34
2022-09-11T16:21:53.554Z,99896.16
2022-09-11T16:24:54.973Z,99894.06
2022-09-11T16:27:57.822Z,99900.22
2022-09-11T16:30:59.692Z,99897.34
2022-09-11T16:34:04.428Z,99897.41
2022-09-11T16:37:05.813Z,99893.53
2022-09-11T16:40:08.322Z,99894.81
2022-09-11T16:43:09.797Z,99893.34
2022-09-11T16:46:13.919Z,99877.38
2022-09-11T16:49:17.421Z,99882.97
2022-09-11T16:52:19.153Z,99883.22
2022-09-11T16:55:21.263Z,99887.28
2022-09-11T16:58:22.853Z,99888.91
2022-09-11T17:01:26.532Z,99887.94
2022-09-11T17:04:28.171Z,99882.88
2022-09-11T17:07:30.266Z,99882.28
2022-09-11T17:10:31.705Z,99892.16
2022-09-11T17:13:33.216Z,99888.56
2022-09-11T17:16:35.653Z,99887.84
2022-09-11T17:19:37.091Z,99892.78
2022-09-11T17:22:39.607Z,99883.75
2022-09-11T17:25:41.666Z,99882.56
2022-09-11T17:28:47.190Z,99880.53
2022-09-11T17:31:48.752Z,99878.09
2022-09-11T17:34:51.450Z,99880.47
2022-09-11T17:37:52.915Z,99879.69
2022-09-11T17:40:58.926Z,99883.59
2022-09-11T17:44:00.514Z,99883.22
2022-09-11T17:47:02.449Z,99886.88
2022-09-11T17:50:04.642Z,99888.94
2022-09-11T17:53:06.177Z,99886.13
2022-09-11T17:56:14.473Z,99895.97
2022-09-11T17:59:16.004Z,99894.31
2022-09-11T18:02:19.360Z,99891.88
2022-09-11T18:05:21.081Z,99889.22
2022-09-11T18:08:23.570Z,99896.34
2022-09-11T18:11:25.138Z,99888.22
2022-09-11T18:14:27.743Z,99884.94
2022-09-11T18:17:29.869Z,99891.84
2022-09-11T18:20:31.247Z,99893.47
2022-09-11T18:23:32.712Z,99885.25
2022-09-11T18:26:37.109Z,99884.06
2022-09-11T18:29:39.938Z,99890.19
2022-09-11T18:32:41.651Z,99889.75
2022-09-11T18:35:44.158Z,99885.19
2022-09-11T18:38:50.521Z,99884.88
2022-09-11T18:41:55.216Z,99890.00
2022-09-11T18:44:56.720Z,99893.25
2022-09-11T18:48:00.026Z,99891.41
2022-09-11T18:51:09.039Z,99895.78
2022-09-11T18:54:15.675Z,99889.44
2022-09-11T18:57:17.097Z,99895.09
2022-09-11T19:00:20.909Z,99904.75
2022-09-11T19:03:22.654Z,99905.66
2022-09-11T19:06:26.570Z,99903.50
2022-09-11T19:09:29.219Z,99905.97
2022-09-11T19:12:30.636Z,99904.88
2022-09-11T19:15:32.159Z,99902.34
2022-09-11T19:18:35.235Z,99907.81
2022-09-11T19:21:38.270Z,99907.75
2022-09-11T19:24:39.673Z,99902.97
2022-09-11T19:27:41.953Z,99910.28
2022-09-11T19:30:43.468Z,99907.56
2022-09-11T19:33:45.048Z,99911.13
2022-09-11T19:36:46.668Z,99912.06
2022-09-11T19:39:51.838Z,99913.88
2022-09-11T19:42:53.452Z,99916.34
2022-09-11T19:46:06.039Z,99912.34
2022-09-11T19:49:07.689Z,99902.75
2022-09-11T19:52:10.462Z,99910.91
2022-09-11T19:55:12.082Z,99935.50
2022-09-11T19:58:13.552Z,99932.25
2022-09-11T20:01:17.896Z,99925.97
2022-09-11T20:04:19.579Z,99922.69
2022-09-11T20:07:21.109Z,99924.88
2022-09-11T20:10:27.668Z,99922.53
2022-09-11T20:13:29.237Z,99931.59
2022-09-11T20:16:31.476Z,99928.41
2022-09-11T20:19:32.932Z,99923.88
2022-09-11T20:22:34.340Z,99931.22
2022-09-11T20:25:36.486Z,99925.22
2022-09-11T20:28:38.031Z,99920.56
2022-09-11T20:31:47.009Z,99924.19
2022-09-11T20:34:49.589Z,99920.91
2022-09-11T20:37:52.705Z,99922.25
2022-09-11T20:40:54.149Z,99917.59
2022-09-11T20:43:57.373Z,99918.66
2022-09-11T20:47:00.459Z,99922.56
2022-09-11T20:50:02.325Z,99928.81
2022-09-11T20:53:03.787Z,99921.69
2022-09-11T20:56:10.066Z,99911.22
2022-09-11T20:59:11.541Z,99915.19
2022-09-11T21:02:14.747Z,99909.59
2022-09-11T21:05:16.325Z,99915.38
2022-09-11T21:08:17.997Z,99907.84
2022-09-11T21:11:19.527Z,99904.56
2022-09-11T21:14:21.063Z,99914.69
2022-09-11T21:17:22.533Z,99912.63
2022-09-11T21:20:24.157Z,99905.38
2022-09-11T21:23:25.583Z,99909.41
2022-09-11T21:26:28.788Z,99898.66
2022-09-11T21:29:30.926Z,99893.03
2022-09-11T21:32:33.399Z,99880.13
2022-09-11T21:35:36.441Z,99888.59
2022-09-11T21:38:38.168Z,99878.63
2022-09-11T21:41:39.776Z,99891.16
2022-09-11T21:44:41.320Z,99885.28
2022-09-11T21:47:42.890Z,99884.47
2022-09-11T21:50:44.368Z,99890.63
2022-09-11T21:53:47.682Z,99884.66
2022-09-11T21:56:49.167Z,99889.81
2022-09-11T21:59:50.747Z,99891.59
2022-09-11T22:02:52.258Z,99893.38
2022-09-11T22:05:53.705Z,99894.78
2022-09-11T22:08:56.113Z,99900.94
2022-09-11T22:11:59.893Z,99897.38
2022-09-11T22:15:02.050Z,99892.63
2022-09-11T22:18:04.297Z,99889.91
2022-09-11T22:21:07.009Z,99889.06
2022-09-11T22:24:08.436Z,99891.72
2022-09-11T22:27:10.689Z,99895.16
2022-09-11T22:30:13.968Z,99891.59
2022-09-11T22:33:15.387Z,99887.91
2022-09-11T22:36:23.638Z,99881.13
2022-09-11T22:39:25.118Z,99883.66
2022-09-11T22:42:26.594Z,99868.22
2022-09-11T22:45:28.093Z,99875.34
2022-09-11T22:48:29.700Z,99871.22
2022-09-11T22:51:32.722Z,99877.97
2022-09-11T22:54:35.055Z,99869.41
2022-09-11T22:57:37.913Z,99871.47
2022-09-11T23:00:40.340Z,99873.78
2022-09-11T23:03:42.003Z,99870.13
2022-09-11T23:07:02.037Z,99870.56
2022-09-11T23:10:03.682Z,99867.94
2022-09-11T23:13:05.098Z,99859.84
2022-09-11T23:16:15.329Z,99857.47
2022-09-11T23:19:16.932Z,99855.91
2022-09-11T23:22:18.332Z,99853.03
2022-09-11T23:25:19.834Z,99846.47
2022-09-11T23:28:21.272Z,99852.22
2022-09-11T23:31:26.196Z,99846.38
2022-09-11T23:34:27.613Z,99849.84
2022-09-11T23:37:29.095Z,99847.84
2022-09-11T23:40:33.413Z,99849.41
2022-09-11T23:43:35.168Z,99846.34
2022-09-11T23:46:36.681Z,99838.69
2022-09-11T23:49:38.134Z,99841.97
2022-09-11T23:52:39.574Z,99836.09
2022-09-11T23:55:42.489Z,99840.75
2022-09-11T23:58:45.625Z,99829.84
